.
WxDataArchive / Data Records for 2013-12-09
2013-12-08 December 2013 2013-12-10

Data Records for Monday, 09 December 2013

Time	Temp	Chill	HIndex	Humid	Dewpt	 Wind 	HiWind	WindDir	Rain 	Barom 
-----	----	-----	------	-----	-----	------	------	-------	-----	----- 
00:00	26.9	26.9	26.9	93	25.2	0	0	---	0.00	29.992 
00:05	26.9	26.9	26.9	93	25.2	0	0	---	0.00	29.992 
00:10	27.0	27.0	27.0	93	25.3	0	4	112	0.00	29.992 
00:15	27.2	27.2	27.2	93	25.4	0	1	112	0.00	29.982 
00:20	27.2	27.2	27.2	93	25.4	0	1	112	0.00	29.982 
00:25	27.2	27.2	27.2	93	25.4	0	0	---	0.00	29.982 
00:30	27.2	27.2	27.2	93	25.4	0	2	112	0.00	29.973 
00:35	27.3	27.3	27.3	93	25.5	0	4	112	0.00	29.973 
00:40	27.3	27.3	27.3	93	25.5	0	1	112	0.00	29.973 
00:45	27.3	27.3	27.3	93	25.5	0	1	112	0.00	29.967 
00:50	27.3	27.3	27.3	93	25.5	0	2	112	0.00	29.967 
00:55	27.3	27.3	27.3	93	25.5	0	0	---	0.00	29.967 
01:00	27.3	27.3	27.3	93	25.5	0	2	112	0.00	29.955 
01:05	27.3	27.3	27.3	93	25.5	0	1	112	0.00	29.955 
01:10	27.5	27.5	27.5	93	25.7	0	0	---	0.00	29.955 
01:15	27.5	27.5	27.5	93	25.7	0	1	112	0.00	29.952 
01:20	27.5	27.5	27.5	93	25.7	0	2	112	0.00	29.952 
01:25	27.5	27.5	27.5	94	26.0	0	1	112	0.00	29.952 
01:30	27.6	27.6	27.6	94	26.1	0	2	112	0.00	29.944 
01:35	27.6	27.6	27.6	94	26.1	0	2	112	0.00	29.944 
01:40	27.8	27.8	27.8	94	26.3	0	2	112	0.00	29.944 
01:45	27.8	27.8	27.8	94	26.3	0	1	112	0.00	29.937 
01:50	27.9	27.9	27.9	94	26.4	0	1	112	0.00	29.937 
01:55	27.9	27.9	27.9	94	26.4	0	1	112	0.00	29.937 
02:00	28.1	28.1	28.1	94	26.6	0	1	112	0.00	29.934 
02:05	28.1	28.1	28.1	94	26.6	0	2	112	0.00	29.934 
02:10	28.1	28.1	28.1	94	26.6	0	1	112	0.00	29.934 
02:15	28.2	28.2	28.2	94	26.7	0	1	112	0.00	29.929 
02:20	28.2	28.2	28.2	94	26.7	0	2	112	0.00	29.929 
02:25	28.2	28.2	28.2	94	26.7	0	2	112	0.00	29.929 
02:30	28.4	28.4	28.4	94	26.9	1	4	112	0.00	29.936 
02:35	28.4	28.4	28.4	94	26.9	0	2	248	0.00	29.936 
02:40	28.5	28.5	28.5	94	27.0	1	4	248	0.00	29.936 
02:45	28.5	28.5	28.5	93	26.7	0	3	248	0.00	29.938 
02:50	28.7	28.7	28.7	93	26.9	1	5	248	0.00	29.938 
02:55	28.7	28.7	28.7	93	26.9	1	5	248	0.00	29.938 
03:00	28.7	28.7	28.7	93	26.9	2	6	248	0.00	29.939 
03:05	28.8	28.8	28.8	93	27.0	2	5	248	0.00	29.939 
03:10	28.8	28.8	28.8	93	27.0	1	5	248	0.00	29.939 
03:15	28.8	28.8	28.8	93	27.0	2	5	248	0.00	29.946 
03:20	28.8	28.8	28.8	93	27.0	2	5	248	0.00	29.946 
03:25	28.8	28.8	28.8	93	27.0	0	2	248	0.00	29.946 
03:30	28.8	28.8	28.8	92	26.8	2	4	248	0.00	29.948 
03:35	28.7	28.7	28.7	92	26.7	2	6	270	0.00	29.948 
03:40	28.7	28.7	28.7	92	26.7	1	4	270	0.00	29.948 
03:45	28.7	28.7	28.7	92	26.7	2	5	270	0.00	29.951 
03:50	28.7	28.7	28.7	92	26.7	1	4	270	0.00	29.951 
03:55	28.5	28.5	28.5	92	26.5	0	3	248	0.00	29.951 
04:00	28.5	28.5	28.5	92	26.5	2	6	248	0.00	29.952 
04:05	28.4	28.4	28.4	92	26.4	1	3	248	0.00	29.952 
04:10	28.4	28.4	28.4	92	26.4	1	6	248	0.00	29.952 
04:15	28.4	28.4	28.4	91	26.1	1	4	248	0.00	29.949 
04:20	28.4	28.4	28.4	91	26.1	2	5	248	0.00	29.949 
04:25	28.2	28.2	28.2	91	25.9	2	5	248	0.00	29.949 
04:30	28.2	28.2	28.2	91	25.9	1	5	248	0.00	29.955 
04:35	28.2	28.2	28.2	90	25.7	2	5	248	0.00	29.955 
04:40	28.1	28.1	28.1	90	25.6	3	7	248	0.00	29.955 
04:45	28.1	28.1	28.1	89	25.3	3	9	248	0.00	29.957 
04:50	27.9	27.9	27.9	89	25.1	2	6	248	0.00	29.957 
04:55	27.9	27.9	27.9	89	25.1	2	8	248	0.00	29.957 
05:00	27.8	27.8	27.8	88	24.7	2	6	248	0.00	29.962 
05:05	27.8	27.8	27.8	88	24.7	2	6	248	0.00	29.962 
05:10	27.6	27.6	27.6	88	24.5	1	4	248	0.00	29.962 
05:15	27.6	27.6	27.6	87	24.2	1	6	248	0.00	29.965 
05:20	27.5	27.5	27.5	87	24.1	1	3	248	0.00	29.965 
05:25	27.5	27.5	27.5	87	24.1	0	2	248	0.00	29.965 
05:30	27.5	27.5	27.5	87	24.1	1	5	248	0.00	29.971 
05:35	27.3	27.3	27.3	86	23.7	2	4	248	0.00	29.971 
05:40	27.2	27.2	27.2	86	23.6	2	5	270	0.00	29.971 
05:45	27.2	27.2	27.2	86	23.6	3	6	270	0.00	29.982 
05:50	27.0	27.0	27.0	86	23.4	3	7	270	0.00	29.982 
05:55	27.0	27.0	27.0	86	23.4	1	5	270	0.00	29.982 
06:00	26.9	26.9	26.9	86	23.3	1	4	248	0.00	29.982 
06:05	26.9	26.9	26.9	86	23.3	2	7	248	0.00	29.982 
06:10	26.7	26.7	26.7	87	23.4	2	6	248	0.00	29.982 
06:15	26.6	26.6	26.6	87	23.3	2	6	248	0.00	29.987 
06:20	26.6	26.6	26.6	87	23.3	2	5	248	0.00	29.987 
06:25	26.6	26.6	26.6	88	23.5	2	5	248	0.00	29.987 
06:30	26.4	26.4	26.4	88	23.3	2	6	248	0.00	30.001 
06:35	26.4	26.4	26.4	87	23.1	3	6	248	0.00	30.001 
06:40	26.3	26.3	26.3	87	23.0	3	6	248	0.00	30.001 
06:45	26.3	26.3	26.3	87	23.0	2	5	270	0.00	30.003 
06:50	26.3	26.3	26.3	86	22.7	3	6	248	0.00	30.003 
06:55	26.1	26.1	26.1	86	22.5	2	4	248	0.00	30.003 
07:00	26.1	26.1	26.1	87	22.8	1	5	248	0.00	30.004 
07:05	26.1	26.1	26.1	87	22.8	2	7	248	0.00	30.004 
07:10	26.1	26.1	26.1	87	22.8	1	4	248	0.00	30.004 
07:15	26.0	26.0	26.0	86	22.4	1	3	248	0.00	30.005 
07:20	26.0	26.0	26.0	86	22.4	2	4	248	0.00	30.005 
07:25	26.0	26.0	26.0	85	22.1	2	6	225	0.00	30.005 
07:30	26.0	26.0	26.0	85	22.1	2	7	248	0.00	30.013 
07:35	26.0	26.0	26.0	85	22.1	2	6	248	0.00	30.013 
07:40	25.8	25.8	25.8	84	21.6	2	6	248	0.00	30.013 
07:45	25.8	25.8	25.8	84	21.6	2	6	248	0.00	30.020 
07:50	25.8	25.8	25.8	84	21.6	2	5	248	0.00	30.020 
07:55	25.8	25.8	25.8	84	21.6	3	6	248	0.00	30.020 
08:00	25.8	25.8	25.8	84	21.6	2	10	248	0.00	30.028 
08:05	25.8	25.8	25.8	83	21.4	3	9	248	0.00	30.028 
08:10	25.8	25.8	25.8	83	21.4	3	7	248	0.00	30.028 
08:15	25.8	25.8	25.8	83	21.4	3	7	248	0.00	30.036 
08:20	25.8	25.8	25.8	83	21.4	2	7	248	0.00	30.036 
08:25	25.8	25.8	25.8	82	21.1	3	6	248	0.00	30.036 
08:30	25.8	25.8	25.8	82	21.1	3	6	248	0.00	30.037 
08:35	25.8	25.8	25.8	82	21.1	2	6	248	0.00	30.037 
08:40	25.8	25.8	25.8	82	21.1	1	4	248	0.00	30.037 
08:45	26.0	26.0	26.0	82	21.3	1	4	248	0.00	30.045 
08:50	25.8	25.8	25.8	81	20.8	2	5	248	0.00	30.045 
08:55	25.8	25.8	25.8	81	20.8	3	7	248	0.00	30.045 
09:00	25.8	25.8	25.8	80	20.5	3	7	270	0.00	30.056 
09:05	25.8	25.8	25.8	80	20.5	3	6	270	0.00	30.056 
09:10	25.8	25.8	25.8	80	20.5	2	9	248	0.00	30.056 
09:15	25.7	25.7	25.7	79	20.1	3	8	248	0.00	30.071 
09:20	25.7	25.7	25.7	79	20.1	2	5	248	0.00	30.071 
09:25	25.7	20.8	25.7	79	20.1	4	11	270	0.00	30.071 
09:30	25.6	25.6	25.6	78	19.7	3	6	270	0.00	30.082 
09:35	25.4	25.4	25.4	77	19.2	2	5	270	0.00	30.082 
09:40	25.6	25.6	25.6	77	19.4	2	5	270	0.00	30.082 
09:45	25.6	25.6	25.6	77	19.4	3	6	270	0.00	30.083 
09:50	25.6	25.6	25.6	77	19.4	3	7	248	0.00	30.083 
09:55	25.6	25.6	25.6	77	19.4	3	10	248	0.00	30.083 
10:00	25.6	25.6	25.6	77	19.4	3	7	248	0.00	30.094 
10:05	25.7	25.7	25.7	77	19.5	2	7	248	0.00	30.094 
10:10	25.7	25.7	25.7	77	19.5	2	6	248	0.00	30.094 
10:15	25.7	25.7	25.7	77	19.5	3	7	270	0.00	30.098 
10:20	25.8	25.8	25.8	77	19.6	2	6	248	0.00	30.098 
10:25	25.8	25.8	25.8	76	19.3	2	6	248	0.00	30.098 
10:30	25.7	25.7	25.7	74	18.6	3	9	270	0.00	30.102 
10:35	25.8	20.9	25.8	73	18.4	4	7	270	0.00	30.102 
10:40	25.8	25.8	25.8	73	18.4	3	6	248	0.00	30.102 
10:45	25.8	25.8	25.8	74	18.7	3	6	248	0.00	30.100 
10:50	25.8	25.8	25.8	74	18.7	3	9	270	0.00	30.100 
10:55	25.8	25.8	25.8	75	19.0	2	5	248	0.00	30.100 
11:00	25.7	25.7	25.7	74	18.6	3	9	248	0.00	30.109 
11:05	25.6	25.6	25.6	73	18.2	3	11	270	0.00	30.109 
11:10	25.7	25.7	25.7	73	18.3	2	5	270	0.00	30.109 
11:15	25.8	25.8	25.8	73	18.4	3	10	270	0.00	30.100 
11:20	25.8	25.8	25.8	73	18.4	2	6	248	0.00	30.100 
11:25	26.0	26.0	26.0	74	18.9	1	4	248	0.00	30.100 
11:30	26.0	26.0	26.0	74	18.9	1	5	248	0.00	30.097 
11:35	25.7	25.7	25.7	73	18.3	3	6	248	0.00	30.097 
11:40	25.6	25.6	25.6	71	17.5	3	6	270	0.00	30.097 
11:45	25.4	25.4	25.4	70	17.0	2	5	270	0.00	30.086 
11:50	25.6	25.6	25.6	71	17.5	2	5	270	0.00	30.086 
11:55	25.6	25.6	25.6	71	17.5	2	6	248	0.00	30.086 
12:00	25.4	25.4	25.4	70	17.0	3	6	248	0.00	30.089 
12:05	25.3	25.3	25.3	70	16.9	3	5	248	0.00	30.089 
12:10	25.3	25.3	25.3	70	16.9	2	5	248	0.00	30.089 
12:15	25.1	25.1	25.1	70	16.7	3	5	270	0.00	30.092 
12:20	25.0	25.0	25.0	71	16.9	3	6	270	0.00	30.092 
12:25	25.0	25.0	25.0	70	16.6	3	6	248	0.00	30.092 
12:30	25.1	25.1	25.1	70	16.7	2	5	248	0.00	30.089 
12:35	25.4	25.4	25.4	69	16.7	3	11	248	0.00	30.089 
12:40	25.6	25.6	25.6	69	16.9	3	7	248	0.00	30.089 
12:45	25.7	25.7	25.7	69	17.0	3	7	248	0.00	30.096 
12:50	25.7	25.7	25.7	68	16.6	3	7	270	0.00	30.096 
12:55	25.7	25.7	25.7	70	17.3	2	6	248	0.00	30.096 
13:00	25.6	25.6	25.6	69	16.9	3	13	248	0.00	30.112 
13:05	25.6	20.7	25.6	69	16.9	4	10	248	0.00	30.112 
13:10	25.4	25.4	25.4	70	17.0	3	6	248	0.00	30.112 
13:15	25.6	25.6	25.6	71	17.5	2	4	248	0.00	30.113 
13:20	25.4	25.4	25.4	70	17.0	3	12	248	0.00	30.113 
13:25	25.3	25.3	25.3	71	17.2	3	6	248	0.00	30.113 
13:30	25.1	25.1	25.1	72	17.4	3	5	248	0.00	30.124 
13:35	24.8	19.8	24.8	72	17.1	4	10	248	0.00	30.124 
13:40	24.8	24.8	24.8	72	17.1	3	9	248	0.00	30.124 
13:45	24.7	24.7	24.7	72	17.0	3	10	248	0.00	30.123 
13:50	24.7	19.6	24.7	72	17.0	4	6	270	0.00	30.123 
13:55	24.5	19.4	24.5	73	17.1	4	7	270	0.00	30.123 
14:00	24.4	24.4	24.4	73	17.0	3	7	270	0.00	30.121 
14:05	24.5	24.5	24.5	73	17.1	3	9	248	0.00	30.121 
14:10	24.5	18.3	24.5	70	16.1	5	11	270	0.00	30.121 
14:15	24.5	19.4	24.5	70	16.1	4	9	270	0.00	30.117 
14:20	24.5	24.5	24.5	70	16.1	3	6	270	0.00	30.117 
14:25	24.7	19.6	24.7	69	16.0	4	7	270	0.00	30.117 
14:30	24.8	24.8	24.8	69	16.1	3	9	270	0.00	30.126 
14:35	24.8	24.8	24.8	69	16.1	3	6	270	0.00	30.126 
14:40	24.7	19.6	24.7	69	16.0	4	7	270	0.00	30.126 
14:45	24.5	24.5	24.5	68	15.5	3	7	248	0.00	30.121 
14:50	24.5	19.4	24.5	68	15.5	4	9	270	0.00	30.121 
14:55	24.7	24.7	24.7	68	15.7	3	6	270	0.00	30.121 
15:00	24.5	19.4	24.5	67	15.1	4	11	270	0.00	30.128 
15:05	24.2	19.1	24.2	66	14.5	4	10	248	0.00	30.128 
15:10	24.2	24.2	24.2	67	14.8	3	8	270	0.00	30.128 
15:15	24.5	24.5	24.5	67	15.1	3	7	270	0.00	30.131 
15:20	24.7	24.7	24.7	67	15.3	3	6	248	0.00	30.131 
15:25	25.0	25.0	25.0	66	15.3	3	11	248	0.00	30.131 
15:30	25.1	25.1	25.1	66	15.4	3	6	248	0.00	30.139 
15:35	25.3	25.3	25.3	66	15.6	3	5	270	0.00	30.139 
15:40	25.1	25.1	25.1	66	15.4	3	6	270	0.00	30.139 
15:45	24.8	24.8	24.8	67	15.4	3	6	270	0.00	30.136 
15:50	24.8	24.8	24.8	67	15.4	2	5	248	0.00	30.136 
15:55	25.0	25.0	25.0	66	15.3	3	10	248	0.00	30.136 
16:00	25.0	25.0	25.0	67	15.6	2	5	270	0.00	30.144 
16:05	25.0	25.0	25.0	66	15.3	3	11	270	0.00	30.144 
16:10	24.4	18.1	24.4	65	14.3	5	12	270	0.00	30.144 
16:15	23.9	23.9	23.9	67	14.6	3	7	270	0.00	30.159 
16:20	23.8	23.8	23.8	67	14.5	3	6	270	0.00	30.159 
16:25	23.5	23.5	23.5	67	14.2	3	8	248	0.00	30.159 
16:30	23.2	23.2	23.2	67	13.9	3	6	270	0.00	30.163 
16:35	23.0	23.0	23.0	68	14.0	3	7	270	0.00	30.163 
16:40	22.9	22.9	22.9	68	13.9	3	5	248	0.00	30.163 
16:45	22.7	22.7	22.7	68	13.8	2	5	248	0.00	30.165 
16:50	22.5	22.5	22.5	68	13.6	2	6	270	0.00	30.165 
16:55	22.4	22.4	22.4	68	13.5	2	6	248	0.00	30.165 
17:00	22.4	22.4	22.4	68	13.5	2	7	248	0.00	30.167 
17:05	22.2	22.2	22.2	68	13.3	2	5	248	0.00	30.167 
17:10	22.1	22.1	22.1	69	13.5	2	6	248	0.00	30.167 
17:15	21.9	21.9	21.9	69	13.3	1	4	248	0.00	30.165 
17:20	21.8	21.8	21.8	70	13.5	1	4	248	0.00	30.165 
17:25	21.6	21.6	21.6	70	13.4	2	5	248	0.00	30.165 
17:30	21.3	21.3	21.3	69	12.7	2	5	248	0.00	30.172 
17:35	21.1	21.1	21.1	69	12.5	2	5	248	0.00	30.172 
17:40	21.0	21.0	21.0	70	12.8	1	4	248	0.00	30.172 
17:45	20.8	20.8	20.8	70	12.6	1	3	248	0.00	30.172 
17:50	20.8	20.8	20.8	70	12.6	1	3	248	0.00	30.172 
17:55	20.6	20.6	20.6	70	12.4	1	3	248	0.00	30.172 
18:00	20.5	20.5	20.5	70	12.3	1	4	292	0.00	30.176 
18:05	20.5	20.5	20.5	70	12.3	0	2	248	0.00	30.176 
18:10	20.3	20.3	20.3	71	12.4	1	3	248	0.00	30.176 
18:15	20.3	20.3	20.3	71	12.4	1	5	270	0.00	30.186 
18:20	20.3	20.3	20.3	71	12.4	1	4	270	0.00	30.186 
18:25	20.3	20.3	20.3	70	12.1	2	6	248	0.00	30.186 
18:30	20.3	20.3	20.3	69	11.8	2	7	248	0.00	30.185 
18:35	20.3	20.3	20.3	69	11.8	1	4	248	0.00	30.185 
18:40	20.2	20.2	20.2	69	11.7	1	3	248	0.00	30.185 
18:45	20.2	20.2	20.2	69	11.7	2	4	248	0.00	30.199 
18:50	20.2	20.2	20.2	69	11.7	1	5	248	0.00	30.199 
18:55	20.2	20.2	20.2	69	11.7	1	6	248	0.00	30.199 
19:00	20.2	20.2	20.2	69	11.7	2	7	248	0.00	30.197 
19:05	20.2	20.2	20.2	69	11.7	2	7	248	0.00	30.197 
19:10	20.0	20.0	20.0	69	11.5	2	4	270	0.00	30.197 
19:15	20.0	20.0	20.0	70	11.8	2	6	248	0.00	30.197 
19:20	20.0	20.0	20.0	70	11.8	2	5	248	0.00	30.197 
19:25	20.0	20.0	20.0	69	11.5	1	4	248	0.00	30.197 
19:30	20.0	20.0	20.0	69	11.5	1	5	248	0.00	30.198 
19:35	20.0	20.0	20.0	69	11.5	2	5	248	0.00	30.198 
19:40	20.0	20.0	20.0	69	11.5	2	6	248	0.00	30.198 
19:45	20.0	20.0	20.0	69	11.5	1	4	248	0.00	30.201 
19:50	20.0	20.0	20.0	69	11.5	2	6	248	0.00	30.201 
19:55	20.0	20.0	20.0	68	11.2	2	5	270	0.00	30.201 
20:00	19.9	19.9	19.9	66	10.4	3	11	248	0.00	30.208 
20:05	19.9	19.9	19.9	66	10.4	2	8	248	0.00	30.208 
20:10	19.9	19.9	19.9	66	10.4	1	6	248	0.00	30.208 
20:15	19.9	19.9	19.9	65	10.1	2	4	248	0.00	30.201 
20:20	19.7	19.7	19.7	64	9.5	2	9	248	0.00	30.201 
20:25	19.7	19.7	19.7	63	9.2	2	5	248	0.00	30.201 
20:30	19.5	19.5	19.5	63	9.0	3	9	270	0.00	30.200 
20:35	19.5	19.5	19.5	63	9.0	3	9	248	0.00	30.200 
20:40	19.4	19.4	19.4	63	8.9	2	7	248	0.00	30.200 
20:45	19.4	19.4	19.4	63	8.9	2	9	248	0.00	30.203 
20:50	19.4	13.5	19.4	63	8.9	4	6	270	0.00	30.203 
20:55	19.4	19.4	19.4	64	9.2	2	6	248	0.00	30.203 
21:00	19.4	19.4	19.4	64	9.2	2	9	270	0.00	30.202 
21:05	19.4	19.4	19.4	65	9.6	1	4	270	0.00	30.202 
21:10	19.4	19.4	19.4	65	9.6	1	5	248	0.00	30.202 
21:15	19.2	19.2	19.2	65	9.4	2	6	248	0.00	30.201 
21:20	19.2	19.2	19.2	65	9.4	1	3	270	0.00	30.201 
21:25	19.2	19.2	19.2	66	9.7	2	4	270	0.00	30.201 
21:30	19.2	19.2	19.2	66	9.7	1	4	248	0.00	30.201 
21:35	19.2	19.2	19.2	66	9.7	2	7	270	0.00	30.201 
21:40	19.2	19.2	19.2	66	9.7	2	5	248	0.00	30.201 
21:45	19.2	19.2	19.2	66	9.7	1	4	270	0.00	30.190 
21:50	19.2	19.2	19.2	66	9.7	2	4	270	0.00	30.190 
21:55	19.2	19.2	19.2	66	9.7	2	5	248	0.00	30.190 
22:00	19.1	19.1	19.1	66	9.6	1	3	248	0.00	30.196 
22:05	19.2	19.2	19.2	67	10.1	1	4	248	0.00	30.196 
22:10	19.1	19.1	19.1	66	9.6	0	3	248	0.00	30.196 
22:15	19.1	19.1	19.1	66	9.6	1	4	248	0.00	30.193 
22:20	18.9	18.9	18.9	65	9.1	1	4	248	0.00	30.193 
22:25	18.9	18.9	18.9	65	9.1	2	5	270	0.00	30.193 
22:30	18.8	18.8	18.8	65	9.0	2	4	270	0.00	30.185 
22:35	18.8	18.8	18.8	65	9.0	1	3	248	0.00	30.185 
22:40	18.8	18.8	18.8	65	9.0	2	4	248	0.00	30.185 
22:45	18.6	18.6	18.6	64	8.5	2	4	248	0.00	30.184 
22:50	18.6	18.6	18.6	64	8.5	2	4	270	0.00	30.184 
22:55	18.4	18.4	18.4	64	8.3	1	4	270	0.00	30.184 
23:00	18.4	18.4	18.4	65	8.6	0	2	270	0.00	30.187 
23:05	18.4	18.4	18.4	65	8.6	0	2	270	0.00	30.187 
23:10	18.4	18.4	18.4	65	8.6	0	2	270	0.00	30.187 
23:15	18.3	18.3	18.3	65	8.5	1	3	270	0.00	30.188 
23:20	18.1	18.1	18.1	65	8.3	1	3	270	0.00	30.188 
23:25	18.0	18.0	18.0	65	8.3	1	3	270	0.00	30.188 
23:30	18.0	18.0	18.0	66	8.6	0	2	270	0.00	30.187 
23:35	18.0	18.0	18.0	65	8.3	1	4	270	0.00	30.187 
23:40	18.0	18.0	18.0	65	8.3	1	5	270	0.00	30.187 
23:45	17.8	17.8	17.8	63	7.4	1	4	248	0.00	30.195 
23:50	17.8	17.8	17.8	63	7.4	1	3	248	0.00	30.195 
23:55	17.8	17.8	17.8	63	7.4	1	2	248	0.00	30.195 

CoCoRaHS
IN-AL-39
A2 Web Hosting
Creative Commons License
GoDaddy
search engine by freefind advanced

loaded 2018-11-17 00:04:04 • last modified 2010-11-18 10:43:29
Privacy PolicyDisclaimer
• wx.awcolley.com is powered by PmWiki v.2002016 •
• all content (unless otherwise noted) © 2018 A W Colley